sensor_id;sensor_type;location;lat;lon;timestamp;P1;durP1;ratioP1;P2;durP2;ratioP2
47251;SDS011;32991;51.374;11.586;2023-09-30T08:44:58;9.98;;;3.28;;
47251;SDS011;32991;51.374;11.586;2023-09-30T08:47:26;11.93;;;3.70;;
47251;SDS011;32991;51.374;11.586;2023-09-30T08:49:54;11.13;;;3.88;;
47251;SDS011;32991;51.374;11.586;2023-09-30T08:52:26;8.15;;;3.55;;
47251;SDS011;32991;51.374;11.586;2023-09-30T08:54:53;11.35;;;3.53;;
47251;SDS011;32991;51.374;11.586;2023-09-30T08:57:20;12.38;;;3.97;;
47251;SDS011;32991;51.374;11.586;2023-09-30T08:59:46;12.07;;;3.50;;
47251;SDS011;32991;51.374;11.586;2023-09-30T09:09:37;8.25;;;3.00;;
47251;SDS011;32991;51.374;11.586;2023-09-30T09:12:04;7.70;;;3.10;;
47251;SDS011;32991;51.374;11.586;2023-09-30T09:14:38;12.90;;;3.30;;
47251;SDS011;32991;51.374;11.586;2023-09-30T09:17:07;8.50;;;3.13;;
47251;SDS011;32991;51.374;11.586;2023-09-30T09:19:34;7.43;;;3.08;;
47251;SDS011;32991;51.374;11.586;2023-09-30T09:37:00;6.82;;;2.58;;
47251;SDS011;32991;51.374;11.586;2023-09-30T12:23:03;7.75;;;2.17;;
47251;SDS011;32991;51.374;11.586;2023-09-30T12:25:32;7.20;;;2.03;;
47251;SDS011;32991;51.374;11.586;2023-09-30T12:27:59;4.13;;;1.88;;
47251;SDS011;32991;51.374;11.586;2023-09-30T12:30:26;5.40;;;1.83;;
47251;SDS011;32991;51.374;11.586;2023-09-30T12:32:53;4.72;;;1.60;;
47251;SDS011;32991;51.374;11.586;2023-09-30T12:35:21;3.83;;;1.92;;
47251;SDS011;32991;51.374;11.586;2023-09-30T12:37:48;7.30;;;2.03;;
47251;SDS011;32991;51.374;11.586;2023-09-30T12:40:14;5.20;;;1.85;;
47251;SDS011;32991;51.374;11.586;2023-09-30T12:42:43;4.72;;;1.92;;
47251;SDS011;32991;51.374;11.586;2023-09-30T12:45:11;5.53;;;1.73;;
47251;SDS011;32991;51.374;11.586;2023-09-30T12:47:39;4.45;;;1.63;;
47251;SDS011;32991;51.374;11.586;2023-09-30T12:50:05;6.18;;;1.77;;
47251;SDS011;32991;51.374;11.586;2023-09-30T12:52:38;10.17;;;2.80;;
47251;SDS011;32991;51.374;11.586;2023-09-30T12:55:05;5.20;;;1.95;;
47251;SDS011;32991;51.374;11.586;2023-09-30T12:57:32;5.85;;;1.77;;
47251;SDS011;32991;51.374;11.586;2023-09-30T12:59:59;4.10;;;1.45;;
47251;SDS011;32991;51.374;11.586;2023-09-30T13:02:25;4.35;;;1.55;;
47251;SDS011;32991;51.374;11.586;2023-09-30T13:04:52;6.82;;;2.00;;
47251;SDS011;32991;51.374;11.586;2023-09-30T13:07:20;5.70;;;1.75;;
47251;SDS011;32991;51.374;11.586;2023-09-30T13:09:47;7.32;;;1.73;;
47251;SDS011;32991;51.374;11.586;2023-09-30T13:12:14;6.57;;;1.90;;
47251;SDS011;32991;51.374;11.586;2023-09-30T13:14:40;5.97;;;1.88;;
47251;SDS011;32991;51.374;11.586;2023-09-30T13:17:07;4.32;;;1.67;;
47251;SDS011;32991;51.374;11.586;2023-09-30T13:19:36;7.03;;;1.75;;
47251;SDS011;32991;51.374;11.586;2023-09-30T13:22:03;6.22;;;1.85;;
47251;SDS011;32991;51.374;11.586;2023-09-30T13:24:44;5.93;;;1.90;;
47251;SDS011;32991;51.374;11.586;2023-09-30T13:27:10;5.45;;;1.92;;
47251;SDS011;32991;51.374;11.586;2023-09-30T13:29:37;4.80;;;1.50;;
47251;SDS011;32991;51.374;11.586;2023-09-30T13:32:04;9.13;;;2.10;;
47251;SDS011;32991;51.374;11.586;2023-09-30T13:34:31;7.10;;;1.77;;
47251;SDS011;32991;51.374;11.586;2023-09-30T13:36:58;5.25;;;1.70;;
47251;SDS011;32991;51.374;11.586;2023-09-30T13:39:24;5.00;;;1.60;;
47251;SDS011;32991;51.374;11.586;2023-09-30T13:41:52;4.90;;;1.83;;
47251;SDS011;32991;51.374;11.586;2023-09-30T13:44:18;6.63;;;1.83;;
47251;SDS011;32991;51.374;11.586;2023-09-30T14:03:54;3.13;;;1.55;;
47251;SDS011;32991;51.374;11.586;2023-09-30T14:08:50;3.22;;;1.42;;
47251;SDS011;32991;51.374;11.586;2023-09-30T14:11:16;3.95;;;1.75;;
47251;SDS011;32991;51.374;11.586;2023-09-30T14:28:27;5.45;;;1.92;;
47251;SDS011;32991;51.374;11.586;2023-09-30T14:30:53;4.30;;;1.90;;
47251;SDS011;32991;51.374;11.586;2023-09-30T14:33:20;4.93;;;1.48;;
47251;SDS011;32991;51.374;11.586;2023-09-30T14:35:47;6.25;;;1.70;;
47251;SDS011;32991;51.374;11.586;2023-09-30T14:38:16;4.85;;;1.52;;
47251;SDS011;32991;51.374;11.586;2023-09-30T14:40:42;3.70;;;1.60;;
47251;SDS011;32991;51.374;11.586;2023-09-30T14:43:09;6.10;;;1.70;;
47251;SDS011;32991;51.374;11.586;2023-09-30T14:45:37;7.00;;;1.90;;
47251;SDS011;32991;51.374;11.586;2023-09-30T14:48:08;6.95;;;1.65;;
47251;SDS011;32991;51.374;11.586;2023-09-30T14:50:38;4.20;;;1.47;;
47251;SDS011;32991;51.374;11.586;2023-09-30T14:53:04;5.18;;;1.77;;
47251;SDS011;32991;51.374;11.586;2023-09-30T14:55:31;6.32;;;1.73;;
47251;SDS011;32991;51.374;11.586;2023-09-30T14:57:58;5.50;;;2.00;;
47251;SDS011;32991;51.374;11.586;2023-09-30T15:00:25;3.65;;;1.70;;
47251;SDS011;32991;51.374;11.586;2023-09-30T15:02:53;4.53;;;1.90;;
47251;SDS011;32991;51.374;11.586;2023-09-30T15:05:21;4.38;;;1.50;;
47251;SDS011;32991;51.374;11.586;2023-09-30T15:07:47;4.65;;;1.70;;
47251;SDS011;32991;51.374;11.586;2023-09-30T15:20:01;5.63;;;2.03;;
47251;SDS011;32991;51.374;11.586;2023-09-30T15:22:29;4.78;;;1.60;;
47251;SDS011;32991;51.374;11.586;2023-09-30T15:24:57;3.78;;;1.60;;
47251;SDS011;32991;51.374;11.586;2023-09-30T15:27:24;3.55;;;1.60;;
47251;SDS011;32991;51.374;11.586;2023-09-30T15:29:52;5.07;;;1.70;;
47251;SDS011;32991;51.374;11.586;2023-09-30T15:32:18;4.10;;;1.67;;
47251;SDS011;32991;51.374;11.586;2023-09-30T15:34:45;5.07;;;1.85;;
47251;SDS011;32991;51.374;11.586;2023-09-30T15:37:12;4.43;;;1.40;;
47251;SDS011;32991;51.374;11.586;2023-09-30T15:39:39;4.00;;;1.70;;
47251;SDS011;32991;51.374;11.586;2023-09-30T15:42:07;4.95;;;1.80;;
47251;SDS011;32991;51.374;11.586;2023-09-30T15:44:38;4.93;;;1.52;;
47251;SDS011;32991;51.374;11.586;2023-09-30T15:47:05;4.78;;;1.70;;
47251;SDS011;32991;51.374;11.586;2023-09-30T15:49:33;4.82;;;1.73;;
47251;SDS011;32991;51.374;11.586;2023-09-30T15:52:03;4.10;;;1.60;;
47251;SDS011;32991;51.374;11.586;2023-09-30T15:54:31;5.07;;;1.30;;
47251;SDS011;32991;51.374;11.586;2023-09-30T15:56:58;6.30;;;1.92;;
47251;SDS011;32991;51.374;11.586;2023-09-30T15:59:25;3.50;;;1.75;;
47251;SDS011;32991;51.374;11.586;2023-09-30T16:01:51;4.88;;;2.40;;
47251;SDS011;32991;51.374;11.586;2023-09-30T16:41:01;5.88;;;2.42;;
47251;SDS011;32991;51.374;11.586;2023-09-30T16:43:29;6.30;;;2.20;;
47251;SDS011;32991;51.374;11.586;2023-09-30T16:45:58;5.97;;;2.20;;
47251;SDS011;32991;51.374;11.586;2023-09-30T16:48:26;5.53;;;2.20;;
47251;SDS011;32991;51.374;11.586;2023-09-30T16:50:53;5.25;;;2.47;;
47251;SDS011;32991;51.374;11.586;2023-09-30T16:53:19;6.25;;;2.53;;
47251;SDS011;32991;51.374;11.586;2023-09-30T16:55:46;6.50;;;2.60;;
47251;SDS011;32991;51.374;11.586;2023-09-30T16:58:13;6.53;;;2.50;;
47251;SDS011;32991;51.374;11.586;2023-09-30T17:00:40;8.13;;;3.10;;
47251;SDS011;32991;51.374;11.586;2023-09-30T17:03:06;8.98;;;2.72;;
47251;SDS011;32991;51.374;11.586;2023-09-30T17:05:34;6.38;;;2.58;;
47251;SDS011;32991;51.374;11.586;2023-09-30T17:08:01;8.52;;;2.70;;
47251;SDS011;32991;51.374;11.586;2023-09-30T17:10:28;7.82;;;2.40;;
47251;SDS011;32991;51.374;11.586;2023-09-30T17:12:55;6.82;;;2.53;;
47251;SDS011;32991;51.374;11.586;2023-09-30T17:15:21;5.90;;;2.58;;
47251;SDS011;32991;51.374;11.586;2023-09-30T17:17:48;6.18;;;2.65;;
47251;SDS011;32991;51.374;11.586;2023-09-30T17:20:14;5.43;;;2.75;;
47251;SDS011;32991;51.374;11.586;2023-09-30T17:22:43;7.85;;;2.80;;
47251;SDS011;32991;51.374;11.586;2023-09-30T17:25:09;8.20;;;3.35;;
47251;SDS011;32991;51.374;11.586;2023-09-30T17:27:36;8.77;;;3.50;;
47251;SDS011;32991;51.374;11.586;2023-09-30T17:30:03;9.38;;;3.67;;
47251;SDS011;32991;51.374;11.586;2023-09-30T17:32:31;6.57;;;3.15;;
47251;SDS011;32991;51.374;11.586;2023-09-30T17:34:58;9.13;;;2.78;;
47251;SDS011;32991;51.374;11.586;2023-09-30T17:37:24;8.43;;;3.33;;
47251;SDS011;32991;51.374;11.586;2023-09-30T17:39:52;10.70;;;3.28;;
47251;SDS011;32991;51.374;11.586;2023-09-30T17:42:19;9.70;;;3.25;;
47251;SDS011;32991;51.374;11.586;2023-09-30T17:44:46;6.82;;;2.85;;
47251;SDS011;32991;51.374;11.586;2023-09-30T17:47:13;8.88;;;3.50;;
47251;SDS011;32991;51.374;11.586;2023-09-30T17:49:39;6.20;;;3.08;;
47251;SDS011;32991;51.374;11.586;2023-09-30T17:52:06;10.35;;;3.00;;
47251;SDS011;32991;51.374;11.586;2023-09-30T17:54:33;6.75;;;2.92;;
47251;SDS011;32991;51.374;11.586;2023-09-30T17:57:00;7.97;;;2.80;;
47251;SDS011;32991;51.374;11.586;2023-09-30T17:59:26;6.20;;;2.80;;
47251;SDS011;32991;51.374;11.586;2023-09-30T18:01:53;7.30;;;3.00;;
47251;SDS011;32991;51.374;11.586;2023-09-30T18:04:20;7.88;;;2.92;;
47251;SDS011;32991;51.374;11.586;2023-09-30T18:06:47;6.63;;;2.87;;
47251;SDS011;32991;51.374;11.586;2023-09-30T18:09:13;9.77;;;3.00;;
47251;SDS011;32991;51.374;11.586;2023-09-30T18:11:40;6.78;;;2.90;;
47251;SDS011;32991;51.374;11.586;2023-09-30T18:14:07;7.35;;;2.80;;
47251;SDS011;32991;51.374;11.586;2023-09-30T18:16:39;8.85;;;2.75;;
47251;SDS011;32991;51.374;11.586;2023-09-30T18:19:06;7.95;;;2.90;;
47251;SDS011;32991;51.374;11.586;2023-09-30T18:21:33;6.80;;;3.00;;
47251;SDS011;32991;51.374;11.586;2023-09-30T18:24:03;7.88;;;2.80;;
47251;SDS011;32991;51.374;11.586;2023-09-30T18:26:31;9.23;;;3.00;;
47251;SDS011;32991;51.374;11.586;2023-09-30T18:28:58;7.82;;;2.90;;
47251;SDS011;32991;51.374;11.586;2023-09-30T18:31:25;9.55;;;2.55;;
47251;SDS011;32991;51.374;11.586;2023-09-30T18:33:52;9.40;;;2.78;;
47251;SDS011;32991;51.374;11.586;2023-09-30T18:36:19;8.65;;;2.72;;
47251;SDS011;32991;51.374;11.586;2023-09-30T18:38:49;8.98;;;2.80;;
47251;SDS011;32991;51.374;11.586;2023-09-30T18:41:22;7.43;;;2.50;;
47251;SDS011;32991;51.374;11.586;2023-09-30T18:43:49;6.45;;;2.55;;
47251;SDS011;32991;51.374;11.586;2023-09-30T18:46:16;6.95;;;2.80;;
47251;SDS011;32991;51.374;11.586;2023-09-30T18:48:43;9.90;;;2.72;;
47251;SDS011;32991;51.374;11.586;2023-09-30T18:51:10;7.78;;;2.72;;
47251;SDS011;32991;51.374;11.586;2023-09-30T18:53:38;5.87;;;2.57;;
47251;SDS011;32991;51.374;11.586;2023-09-30T18:56:06;6.57;;;2.47;;
47251;SDS011;32991;51.374;11.586;2023-09-30T18:58:33;5.95;;;2.33;;
47251;SDS011;32991;51.374;11.586;2023-09-30T19:01:00;7.22;;;2.67;;
47251;SDS011;32991;51.374;11.586;2023-09-30T19:03:27;6.60;;;2.70;;
47251;SDS011;32991;51.374;11.586;2023-09-30T19:05:54;7.43;;;3.58;;
47251;SDS011;32991;51.374;11.586;2023-09-30T19:08:21;9.65;;;4.82;;
47251;SDS011;32991;51.374;11.586;2023-09-30T19:10:51;7.75;;;3.63;;
47251;SDS011;32991;51.374;11.586;2023-09-30T19:13:19;8.13;;;3.60;;
47251;SDS011;32991;51.374;11.586;2023-09-30T19:15:46;7.40;;;4.37;;
47251;SDS011;32991;51.374;11.586;2023-09-30T19:18:12;8.00;;;3.25;;
47251;SDS011;32991;51.374;11.586;2023-09-30T19:20:42;8.65;;;3.80;;
47251;SDS011;32991;51.374;11.586;2023-09-30T19:23:13;7.15;;;3.95;;
47251;SDS011;32991;51.374;11.586;2023-09-30T19:25:39;9.15;;;3.20;;
47251;SDS011;32991;51.374;11.586;2023-09-30T19:28:06;7.90;;;3.17;;
47251;SDS011;32991;51.374;11.586;2023-09-30T19:30:34;7.88;;;3.33;;
47251;SDS011;32991;51.374;11.586;2023-09-30T19:33:01;10.32;;;3.38;;
47251;SDS011;32991;51.374;11.586;2023-09-30T19:35:28;10.68;;;2.97;;
47251;SDS011;32991;51.374;11.586;2023-09-30T19:37:55;6.45;;;3.00;;
47251;SDS011;32991;51.374;11.586;2023-09-30T19:40:21;9.27;;;4.13;;
47251;SDS011;32991;51.374;11.586;2023-09-30T19:42:48;13.73;;;5.03;;
47251;SDS011;32991;51.374;11.586;2023-09-30T19:45:15;11.90;;;5.90;;
47251;SDS011;32991;51.374;11.586;2023-09-30T19:47:42;10.45;;;4.65;;
47251;SDS011;32991;51.374;11.586;2023-09-30T19:50:10;12.57;;;5.28;;
47251;SDS011;32991;51.374;11.586;2023-09-30T19:52:36;11.75;;;4.50;;
47251;SDS011;32991;51.374;11.586;2023-09-30T19:55:03;7.78;;;3.83;;
47251;SDS011;32991;51.374;11.586;2023-09-30T19:57:30;12.27;;;4.60;;
47251;SDS011;32991;51.374;11.586;2023-09-30T19:59:58;10.63;;;4.68;;
47251;SDS011;32991;51.374;11.586;2023-09-30T20:02:24;8.60;;;4.85;;
47251;SDS011;32991;51.374;11.586;2023-09-30T20:04:54;10.98;;;5.40;;
47251;SDS011;32991;51.374;11.586;2023-09-30T20:07:21;9.02;;;4.30;;
47251;SDS011;32991;51.374;11.586;2023-09-30T20:09:49;8.88;;;3.70;;
47251;SDS011;32991;51.374;11.586;2023-09-30T20:12:18;10.00;;;3.78;;
47251;SDS011;32991;51.374;11.586;2023-09-30T20:14:45;10.00;;;3.67;;
47251;SDS011;32991;51.374;11.586;2023-09-30T20:17:12;6.88;;;3.38;;
47251;SDS011;32991;51.374;11.586;2023-09-30T20:19:39;9.10;;;3.45;;
47251;SDS011;32991;51.374;11.586;2023-09-30T20:22:06;11.48;;;4.60;;
47251;SDS011;32991;51.374;11.586;2023-09-30T20:24:33;12.70;;;5.82;;
47251;SDS011;32991;51.374;11.586;2023-09-30T20:27:04;12.27;;;5.93;;
47251;SDS011;32991;51.374;11.586;2023-09-30T20:29:30;9.45;;;3.92;;
47251;SDS011;32991;51.374;11.586;2023-09-30T20:31:57;9.48;;;3.92;;
47251;SDS011;32991;51.374;11.586;2023-09-30T20:34:24;11.82;;;4.07;;
47251;SDS011;32991;51.374;11.586;2023-09-30T20:36:50;8.70;;;3.00;;
47251;SDS011;32991;51.374;11.586;2023-09-30T20:39:18;8.55;;;2.72;;
47251;SDS011;32991;51.374;11.586;2023-09-30T20:41:47;7.13;;;2.33;;
47251;SDS011;32991;51.374;11.586;2023-09-30T20:44:16;6.65;;;2.72;;
47251;SDS011;32991;51.374;11.586;2023-09-30T20:46:43;6.70;;;2.27;;
47251;SDS011;32991;51.374;11.586;2023-09-30T20:49:12;11.05;;;2.85;;
47251;SDS011;32991;51.374;11.586;2023-09-30T20:51:39;7.40;;;2.35;;
47251;SDS011;32991;51.374;11.586;2023-09-30T20:54:06;7.83;;;2.50;;
47251;SDS011;32991;51.374;11.586;2023-09-30T20:56:34;8.20;;;2.65;;
47251;SDS011;32991;51.374;11.586;2023-09-30T20:59:02;9.07;;;2.85;;
47251;SDS011;32991;51.374;11.586;2023-09-30T21:01:29;9.63;;;2.88;;
47251;SDS011;32991;51.374;11.586;2023-09-30T21:03:58;11.02;;;2.95;;
47251;SDS011;32991;51.374;11.586;2023-09-30T21:06:24;8.10;;;2.80;;
47251;SDS011;32991;51.374;11.586;2023-09-30T21:08:51;6.90;;;2.67;;
47251;SDS011;32991;51.374;11.586;2023-09-30T21:11:18;7.97;;;2.80;;
47251;SDS011;32991;51.374;11.586;2023-09-30T21:13:44;8.35;;;3.00;;
47251;SDS011;32991;51.374;11.586;2023-09-30T21:16:12;7.97;;;2.83;;
47251;SDS011;32991;51.374;11.586;2023-09-30T21:18:39;8.05;;;2.90;;
47251;SDS011;32991;51.374;11.586;2023-09-30T21:21:09;5.82;;;2.72;;
47251;SDS011;32991;51.374;11.586;2023-09-30T21:23:36;5.73;;;2.77;;
47251;SDS011;32991;51.374;11.586;2023-09-30T21:26:03;7.50;;;2.95;;
47251;SDS011;32991;51.374;11.586;2023-09-30T21:28:31;7.38;;;2.58;;
47251;SDS011;32991;51.374;11.586;2023-09-30T21:30:58;6.93;;;2.75;;
47251;SDS011;32991;51.374;11.586;2023-09-30T21:33:26;8.05;;;3.03;;
47251;SDS011;32991;51.374;11.586;2023-09-30T21:35:54;6.68;;;2.88;;
47251;SDS011;32991;51.374;11.586;2023-09-30T21:38:23;9.88;;;2.95;;
47251;SDS011;32991;51.374;11.586;2023-09-30T21:40:52;8.00;;;2.80;;
47251;SDS011;32991;51.374;11.586;2023-09-30T21:43:19;10.88;;;3.03;;
47251;SDS011;32991;51.374;11.586;2023-09-30T21:45:45;8.88;;;3.13;;
47251;SDS011;32991;51.374;11.586;2023-09-30T21:48:12;7.07;;;3.00;;
47251;SDS011;32991;51.374;11.586;2023-09-30T21:50:39;9.25;;;2.97;;
47251;SDS011;32991;51.374;11.586;2023-09-30T21:53:05;8.63;;;2.90;;
47251;SDS011;32991;51.374;11.586;2023-09-30T21:55:33;7.40;;;2.67;;
47251;SDS011;32991;51.374;11.586;2023-09-30T21:58:00;8.03;;;3.20;;
47251;SDS011;32991;51.374;11.586;2023-09-30T22:00:27;8.43;;;3.10;;
47251;SDS011;32991;51.374;11.586;2023-09-30T22:03:03;9.07;;;3.00;;
47251;SDS011;32991;51.374;11.586;2023-09-30T22:05:31;7.88;;;3.00;;
47251;SDS011;32991;51.374;11.586;2023-09-30T22:07:58;12.15;;;3.17;;
47251;SDS011;32991;51.374;11.586;2023-09-30T22:10:25;8.10;;;3.10;;
47251;SDS011;32991;51.374;11.586;2023-09-30T22:12:52;10.90;;;3.00;;
47251;SDS011;32991;51.374;11.586;2023-09-30T22:15:19;9.18;;;3.22;;
47251;SDS011;32991;51.374;11.586;2023-09-30T22:17:46;8.20;;;2.83;;
47251;SDS011;32991;51.374;11.586;2023-09-30T22:20:13;8.20;;;2.85;;
47251;SDS011;32991;51.374;11.586;2023-09-30T22:22:40;9.43;;;2.90;;
47251;SDS011;32991;51.374;11.586;2023-09-30T22:25:08;8.60;;;3.17;;
47251;SDS011;32991;51.374;11.586;2023-09-30T22:27:36;9.25;;;3.10;;
47251;SDS011;32991;51.374;11.586;2023-09-30T22:30:02;7.75;;;3.08;;
47251;SDS011;32991;51.374;11.586;2023-09-30T22:32:33;9.15;;;3.28;;
47251;SDS011;32991;51.374;11.586;2023-09-30T22:35:00;8.35;;;3.00;;
47251;SDS011;32991;51.374;11.586;2023-09-30T22:37:26;9.93;;;3.40;;
47251;SDS011;32991;51.374;11.586;2023-09-30T22:39:53;9.93;;;3.40;;
47251;SDS011;32991;51.374;11.586;2023-09-30T22:42:20;12.53;;;3.53;;
47251;SDS011;32991;51.374;11.586;2023-09-30T22:44:46;7.30;;;3.20;;
47251;SDS011;32991;51.374;11.586;2023-09-30T22:47:13;9.60;;;3.50;;
47251;SDS011;32991;51.374;11.586;2023-09-30T22:49:39;6.47;;;3.15;;
47251;SDS011;32991;51.374;11.586;2023-09-30T22:52:06;8.50;;;3.17;;
47251;SDS011;32991;51.374;11.586;2023-09-30T22:54:33;7.23;;;3.30;;
47251;SDS011;32991;51.374;11.586;2023-09-30T22:57:00;8.13;;;3.33;;
47251;SDS011;32991;51.374;11.586;2023-09-30T22:59:27;10.38;;;3.67;;
47251;SDS011;32991;51.374;11.586;2023-09-30T23:01:54;10.25;;;3.53;;
47251;SDS011;32991;51.374;11.586;2023-09-30T23:04:21;9.77;;;3.72;;
47251;SDS011;32991;51.374;11.586;2023-09-30T23:06:47;10.73;;;3.75;;
47251;SDS011;32991;51.374;11.586;2023-09-30T23:09:14;7.18;;;3.35;;
47251;SDS011;32991;51.374;11.586;2023-09-30T23:11:45;9.18;;;3.00;;
47251;SDS011;32991;51.374;11.586;2023-09-30T23:14:11;10.18;;;3.22;;
47251;SDS011;32991;51.374;11.586;2023-09-30T23:16:38;9.52;;;3.13;;
47251;SDS011;32991;51.374;11.586;2023-09-30T23:19:09;9.00;;;3.45;;
47251;SDS011;32991;51.374;11.586;2023-09-30T23:21:37;8.05;;;2.92;;
47251;SDS011;32991;51.374;11.586;2023-09-30T23:24:04;10.25;;;3.47;;
47251;SDS011;32991;51.374;11.586;2023-09-30T23:26:32;10.00;;;3.53;;
47251;SDS011;32991;51.374;11.586;2023-09-30T23:29:02;9.75;;;3.42;;
47251;SDS011;32991;51.374;11.586;2023-09-30T23:31:34;10.30;;;3.57;;
47251;SDS011;32991;51.374;11.586;2023-09-30T23:34:01;9.60;;;3.53;;
47251;SDS011;32991;51.374;11.586;2023-09-30T23:36:31;8.98;;;3.53;;
47251;SDS011;32991;51.374;11.586;2023-09-30T23:38:58;9.43;;;3.67;;
47251;SDS011;32991;51.374;11.586;2023-09-30T23:41:25;11.57;;;3.80;;
47251;SDS011;32991;51.374;11.586;2023-09-30T23:43:52;12.10;;;3.70;;
47251;SDS011;32991;51.374;11.586;2023-09-30T23:46:20;9.55;;;3.38;;
47251;SDS011;32991;51.374;11.586;2023-09-30T23:48:49;9.15;;;3.60;;
47251;SDS011;32991;51.374;11.586;2023-09-30T23:51:18;7.87;;;3.30;;
47251;SDS011;32991;51.374;11.586;2023-09-30T23:53:45;9.60;;;3.70;;
47251;SDS011;32991;51.374;11.586;2023-09-30T23:56:12;10.50;;;3.80;;
47251;SDS011;32991;51.374;11.586;2023-09-30T23:58:42;9.18;;;3.50;;
